createdAt,value
2019-04-26T00:00:03.028Z,9.23
2019-04-26T00:02:39.255Z,7.70
2019-04-26T00:05:09.404Z,5.57
2019-04-26T00:07:38.766Z,7.03
2019-04-26T00:10:18.099Z,8.27
2019-04-26T00:12:57.868Z,7.03
2019-04-26T00:15:51.032Z,4.75
2019-04-26T00:18:20.905Z,6.20
2019-04-26T00:20:49.897Z,3.67
2019-04-26T00:23:18.680Z,7.57
2019-04-26T00:25:47.398Z,4.10
2019-04-26T00:28:17.004Z,7.77
2019-04-26T00:30:46.239Z,4.30
2019-04-26T00:33:15.285Z,4.15
2019-04-26T00:35:47.761Z,4.70
2019-04-26T00:38:14.676Z,8.20
2019-04-26T00:40:44.779Z,1.93
2019-04-26T00:43:14.288Z,3.93
2019-04-26T00:45:43.842Z,4.83
2019-04-26T00:48:15.171Z,2.60
2019-04-26T00:50:45.486Z,6.23
2019-04-26T00:53:16.084Z,4.20
2019-04-26T00:55:45.585Z,2.73
2019-04-26T00:58:16.333Z,5.37
2019-04-26T01:00:45.601Z,5.47
2019-04-26T01:03:15.234Z,4.17
2019-04-26T01:05:44.389Z,4.12
2019-04-26T01:08:13.321Z,6.03
2019-04-26T01:10:42.061Z,6.27
2019-04-26T01:13:10.789Z,6.93
2019-04-26T01:15:39.512Z,4.10
2019-04-26T01:18:08.300Z,4.60
2019-04-26T01:20:38.048Z,6.63
2019-04-26T01:23:11.393Z,5.27
2019-04-26T01:26:10.672Z,2.90
2019-04-26T01:28:44.897Z,5.00
2019-04-26T01:31:14.701Z,3.17
2019-04-26T01:33:44.667Z,8.68
2019-04-26T01:36:13.831Z,2.73
2019-04-26T01:38:46.086Z,5.20
2019-04-26T01:41:22.359Z,3.03
2019-04-26T01:44:06.481Z,3.03
2019-04-26T01:46:41.350Z,7.10
2019-04-26T01:49:12.274Z,2.67
2019-04-26T01:52:02.388Z,3.27
2019-04-26T01:54:37.141Z,5.03
2019-04-26T01:57:06.192Z,3.33
2019-04-26T01:59:39.062Z,2.13
2019-04-26T02:02:24.076Z,4.43
2019-04-26T02:04:55.476Z,3.80
2019-04-26T02:07:40.301Z,4.73
2019-04-26T02:10:11.743Z,4.77
2019-04-26T02:12:43.911Z,2.87
2019-04-26T02:15:13.056Z,2.97
2019-04-26T02:17:43.142Z,5.67
2019-04-26T02:20:12.844Z,2.30
2019-04-26T02:22:52.485Z,2.65
2019-04-26T02:25:21.260Z,4.13
2019-04-26T02:27:50.001Z,4.33
2019-04-26T02:30:18.850Z,5.27
2019-04-26T02:32:47.964Z,2.53
2019-04-26T02:35:16.783Z,4.70
2019-04-26T02:37:45.810Z,5.77
2019-04-26T02:40:17.179Z,6.57
2019-04-26T02:42:47.624Z,5.03
2019-04-26T02:45:50.993Z,1.82
2019-04-26T02:48:41.306Z,3.03
2019-04-26T02:51:16.168Z,2.20
2019-04-26T02:54:01.685Z,9.33
2019-04-26T02:56:38.290Z,2.60
2019-04-26T02:59:25.746Z,4.37
2019-04-26T03:01:58.481Z,2.43
2019-04-26T03:04:30.437Z,1.40
2019-04-26T03:07:04.048Z,2.55
2019-04-26T03:09:37.009Z,3.60
2019-04-26T03:12:10.115Z,5.57
2019-04-26T03:15:12.162Z,3.03
2019-04-26T03:17:40.322Z,4.40
2019-04-26T03:20:13.198Z,1.72
2019-04-26T03:23:13.292Z,2.25
2019-04-26T03:26:27.381Z,3.00
2019-04-26T03:29:06.873Z,1.98
2019-04-26T03:31:55.088Z,2.37
2019-04-26T03:34:52.615Z,2.50
2019-04-26T03:37:46.976Z,2.30
2019-04-26T03:40:33.817Z,2.10
2019-04-26T03:43:21.533Z,3.77
2019-04-26T03:46:02.029Z,3.50
2019-04-26T03:48:57.622Z,3.00
2019-04-26T03:52:10.690Z,2.80
2019-04-26T03:54:42.794Z,2.07
2019-04-26T03:57:26.250Z,2.97
2019-04-26T04:00:51.434Z,5.87
2019-04-26T04:03:52.306Z,2.52
2019-04-26T04:06:27.573Z,4.40
2019-04-26T04:09:01.614Z,4.47
2019-04-26T04:11:38.496Z,2.90
2019-04-26T04:14:33.021Z,2.70
2019-04-26T04:17:24.152Z,3.80
2019-04-26T04:20:26.536Z,4.13
2019-04-26T04:23:02.742Z,4.23
2019-04-26T04:25:36.150Z,3.62
2019-04-26T04:28:32.666Z,2.67
2019-04-26T04:31:13.616Z,3.07
2019-04-26T04:33:50.331Z,2.33
2019-04-26T04:36:25.396Z,3.53
2019-04-26T04:39:12.531Z,2.90
2019-04-26T04:41:57.856Z,3.43
2019-04-26T04:45:02.577Z,2.20
2019-04-26T04:47:46.124Z,4.17
2019-04-26T04:50:26.561Z,4.85
2019-04-26T04:53:22.893Z,3.08
2019-04-26T04:56:02.609Z,3.97
2019-04-26T04:58:40.219Z,3.45
2019-04-26T05:02:03.012Z,3.60
2019-04-26T05:05:04.226Z,4.63
2019-04-26T05:07:45.239Z,4.40
2019-04-26T05:10:21.134Z,3.60
2019-04-26T05:13:20.222Z,3.77
2019-04-26T05:16:20.586Z,6.53
2019-04-26T05:19:26.615Z,4.67
2019-04-26T05:22:23.504Z,3.93
2019-04-26T05:25:48.050Z,4.60
2019-04-26T05:28:29.022Z,4.83
2019-04-26T05:31:36.571Z,5.27
2019-04-26T05:34:51.313Z,2.70
2019-04-26T05:38:00.241Z,2.85
2019-04-26T05:41:06.771Z,5.12
2019-04-26T05:44:01.918Z,4.70
2019-04-26T05:46:54.361Z,3.42
2019-04-26T05:50:30.561Z,3.60
2019-04-26T05:54:23.974Z,4.90
2019-04-26T05:57:19.649Z,4.33
2019-04-26T06:00:35.008Z,3.92
2019-04-26T06:04:14.024Z,4.83
2019-04-26T06:07:07.054Z,5.60
2019-04-26T06:10:25.384Z,4.30
2019-04-26T06:13:05.542Z,6.83
2019-04-26T06:16:02.384Z,9.73
2019-04-26T06:19:17.017Z,6.77
2019-04-26T06:21:58.469Z,5.63
2019-04-26T06:24:52.639Z,6.63
2019-04-26T06:27:39.991Z,7.83
2019-04-26T06:30:20.981Z,6.30
2019-04-26T06:33:17.366Z,8.73
2019-04-26T06:35:49.544Z,7.13
2019-04-26T06:38:49.800Z,9.77
2019-04-26T06:42:05.278Z,8.23
2019-04-26T06:45:02.749Z,9.57
2019-04-26T06:47:45.073Z,9.57
2019-04-26T06:50:34.565Z,11.55
2019-04-26T06:53:32.505Z,9.17
2019-04-26T06:56:41.534Z,9.17
2019-04-26T06:59:36.057Z,7.90
2019-04-26T07:02:02.907Z,10.03
2019-04-26T07:05:31.133Z,7.93
2019-04-26T07:08:21.940Z,10.00
2019-04-26T07:11:30.014Z,10.10
2019-04-26T07:14:37.450Z,13.07
2019-04-26T07:17:12.240Z,10.63
2019-04-26T07:20:35.951Z,10.40
2019-04-26T07:23:50.277Z,10.93
2019-04-26T07:26:51.140Z,9.83
2019-04-26T07:29:45.188Z,10.07
2019-04-26T07:32:24.691Z,11.95
2019-04-26T07:35:15.622Z,10.05
2019-04-26T07:38:45.833Z,9.83
2019-04-26T07:41:51.322Z,10.35
2019-04-26T07:44:50.924Z,10.50
2019-04-26T07:48:13.258Z,9.83
2019-04-26T07:51:16.780Z,12.43
2019-04-26T07:54:13.958Z,11.00
2019-04-26T07:57:12.893Z,10.30
2019-04-26T08:00:14.042Z,9.40
2019-04-26T08:03:05.507Z,9.53
2019-04-26T08:05:44.413Z,10.75
2019-04-26T08:08:17.478Z,11.57
2019-04-26T08:10:57.073Z,11.70
2019-04-26T08:13:28.954Z,11.57
2019-04-26T08:16:29.423Z,11.67
2019-04-26T08:19:05.839Z,11.60
2019-04-26T08:21:42.603Z,11.13
2019-04-26T08:24:24.442Z,12.60
2019-04-26T08:27:22.596Z,11.87
2019-04-26T08:29:47.680Z,15.60
2019-04-26T08:32:28.202Z,12.28
2019-04-26T08:35:28.646Z,15.70
2019-04-26T08:38:01.823Z,13.62
2019-04-26T08:40:33.429Z,15.70
2019-04-26T08:43:22.621Z,15.53
2019-04-26T08:46:06.046Z,18.07
2019-04-26T08:49:06.140Z,19.20
2019-04-26T08:51:36.204Z,17.87
2019-04-26T08:54:10.269Z,16.27
2019-04-26T08:56:43.580Z,16.93
2019-04-26T08:59:19.995Z,17.23
2019-04-26T09:02:03.256Z,17.23
2019-04-26T09:04:47.939Z,18.47
2019-04-26T09:07:22.593Z,18.17
2019-04-26T09:09:57.397Z,18.33
2019-04-26T09:12:27.837Z,17.20
2019-04-26T09:15:00.372Z,16.33
2019-04-26T09:17:32.227Z,18.85
2019-04-26T09:20:07.131Z,17.80
2019-04-26T09:22:39.223Z,18.17
2019-04-26T09:25:13.813Z,22.57
2019-04-26T09:27:47.897Z,21.30
2019-04-26T09:30:33.309Z,21.40
2019-04-26T09:33:10.864Z,20.43
2019-04-26T09:35:39.797Z,19.40
2019-04-26T09:38:08.513Z,21.90
2019-04-26T09:40:37.628Z,21.60
2019-04-26T09:43:24.241Z,23.43
2019-04-26T09:46:10.713Z,19.27
2019-04-26T09:48:44.272Z,20.90
2019-04-26T09:51:13.226Z,19.62
2019-04-26T09:53:43.506Z,20.70
2019-04-26T09:56:12.426Z,19.83
2019-04-26T09:58:41.446Z,19.90
2019-04-26T10:01:10.934Z,20.75
2019-04-26T10:03:39.685Z,19.60
2019-04-26T10:06:09.593Z,18.93
2019-04-26T10:08:38.332Z,18.37
2019-04-26T10:11:09.705Z,19.62
2019-04-26T10:13:51.406Z,22.13
2019-04-26T10:16:37.708Z,19.93
2019-04-26T10:19:08.616Z,18.43
2019-04-26T10:21:37.646Z,22.90
2019-04-26T10:24:08.294Z,24.23
2019-04-26T10:26:37.021Z,20.07
2019-04-26T10:29:05.921Z,18.83
2019-04-26T10:31:34.636Z,19.03
2019-04-26T10:34:03.488Z,19.93
2019-04-26T10:36:32.269Z,20.33
2019-04-26T10:39:01.433Z,20.60
2019-04-26T10:41:30.326Z,20.70
2019-04-26T10:43:59.418Z,20.03
2019-04-26T10:46:29.447Z,18.73
2019-04-26T10:49:08.927Z,19.67
2019-04-26T10:51:41.836Z,19.20
2019-04-26T10:54:28.545Z,22.10
2019-04-26T10:57:05.324Z,19.43
2019-04-26T10:59:39.840Z,18.70
2019-04-26T11:02:12.836Z,19.23
2019-04-26T11:04:42.859Z,19.50
2019-04-26T11:07:11.782Z,18.83
2019-04-26T11:09:40.633Z,17.07
2019-04-26T11:12:12.174Z,20.13
2019-04-26T11:14:40.968Z,18.70
2019-04-26T11:17:11.502Z,19.07
2019-04-26T11:19:41.143Z,19.83
2019-04-26T11:22:10.016Z,23.57
2019-04-26T11:24:38.768Z,19.97
2019-04-26T11:27:09.556Z,18.82
2019-04-26T11:29:38.156Z,18.80
2019-04-26T11:32:07.305Z,18.85
2019-04-26T11:34:36.378Z,21.17
2019-04-26T11:37:05.677Z,20.32
2019-04-26T11:39:36.606Z,19.60
2019-04-26T11:42:07.944Z,20.20
2019-04-26T11:44:35.817Z,19.90
2019-04-26T11:47:07.776Z,19.33
2019-04-26T11:49:37.412Z,18.83
2019-04-26T11:52:06.245Z,20.62
2019-04-26T11:54:35.220Z,20.70
2019-04-26T11:57:04.026Z,24.73
2019-04-26T11:59:33.179Z,21.97
2019-04-26T12:02:01.904Z,23.17
2019-04-26T12:04:53.580Z,22.10
2019-04-26T12:07:29.344Z,22.10
2019-04-26T12:09:59.974Z,21.60
2019-04-26T12:12:28.694Z,20.45
2019-04-26T12:14:57.640Z,20.97
2019-04-26T12:17:58.081Z,21.30
2019-04-26T12:20:16.603Z,21.73
2019-04-26T12:22:45.333Z,22.70
2019-04-26T12:25:14.517Z,24.10
2019-04-26T12:27:43.404Z,22.63
2019-04-26T12:30:12.625Z,20.05
2019-04-26T12:32:41.726Z,22.73
2019-04-26T12:35:10.581Z,22.63
2019-04-26T12:37:39.720Z,23.00
2019-04-26T12:40:11.237Z,23.20
2019-04-26T12:42:43.352Z,20.30
2019-04-26T12:45:28.416Z,22.17
2019-04-26T12:47:58.516Z,20.55
2019-04-26T12:50:29.520Z,18.48
2019-04-26T12:52:57.869Z,21.15
2019-04-26T12:55:27.393Z,20.93
2019-04-26T12:57:56.460Z,19.83
2019-04-26T13:00:28.443Z,21.10
2019-04-26T13:02:58.274Z,20.30
2019-04-26T13:05:27.096Z,18.95
2019-04-26T13:07:56.037Z,19.20
2019-04-26T13:10:44.972Z,19.10
2019-04-26T13:13:27.336Z,18.23
2019-04-26T13:16:17.468Z,18.57
2019-04-26T13:18:46.966Z,21.30
2019-04-26T13:21:16.276Z,16.83
2019-04-26T13:23:47.951Z,16.57
2019-04-26T13:26:16.166Z,15.37
2019-04-26T13:28:44.968Z,16.03
2019-04-26T13:31:13.844Z,18.17
2019-04-26T13:33:42.736Z,17.17
2019-04-26T13:36:11.794Z,17.00
2019-04-26T13:38:43.596Z,17.85
2019-04-26T13:41:11.367Z,16.10
2019-04-26T13:43:40.135Z,14.23
2019-04-26T13:46:30.602Z,15.43
2019-04-26T13:49:26.513Z,15.23
2019-04-26T13:51:57.218Z,14.63
2019-04-26T13:54:26.978Z,13.43
2019-04-26T13:56:56.082Z,12.07
2019-04-26T13:59:28.086Z,10.90
2019-04-26T14:01:56.107Z,12.53
2019-04-26T14:04:24.966Z,9.70
2019-04-26T14:06:54.965Z,9.67
2019-04-26T14:09:23.703Z,7.92
2019-04-26T14:11:52.492Z,8.30
2019-04-26T14:14:21.247Z,8.97
2019-04-26T14:16:52.058Z,8.37
2019-04-26T14:19:21.652Z,8.85
2019-04-26T14:21:50.705Z,9.53
2019-04-26T14:24:30.814Z,9.03
2019-04-26T14:27:02.222Z,10.53
2019-04-26T14:29:33.824Z,10.20
2019-04-26T14:32:02.976Z,9.43
2019-04-26T14:34:31.787Z,11.13
2019-04-26T14:37:06.541Z,10.60
2019-04-26T14:39:43.277Z,8.73
2019-04-26T14:42:02.204Z,8.50
2019-04-26T14:44:32.836Z,9.98
2019-04-26T14:47:12.953Z,9.67
2019-04-26T14:49:39.068Z,10.50
2019-04-26T14:52:03.698Z,8.67
2019-04-26T14:54:32.463Z,9.48
2019-04-26T14:57:07.674Z,11.93
2019-04-26T14:59:47.254Z,8.10
2019-04-26T15:02:47.484Z,7.17
2019-04-26T15:05:22.114Z,8.80
2019-04-26T15:07:53.572Z,6.97
2019-04-26T15:10:23.454Z,7.50
2019-04-26T15:12:58.559Z,7.50
2019-04-26T15:15:26.783Z,7.37
2019-04-26T15:17:59.287Z,11.83
2019-04-26T15:20:24.412Z,6.93
2019-04-26T15:22:53.605Z,7.20
2019-04-26T15:25:22.686Z,8.83
2019-04-26T15:27:52.476Z,9.57
2019-04-26T15:30:22.050Z,7.17
2019-04-26T15:32:52.888Z,6.70
2019-04-26T15:35:23.189Z,8.10
2019-04-26T15:37:53.489Z,7.70
2019-04-26T15:40:40.448Z,7.00
2019-04-26T15:43:24.259Z,12.80
2019-04-26T15:46:18.469Z,7.83
2019-04-26T15:49:09.445Z,6.40
2019-04-26T15:51:37.750Z,5.97
2019-04-26T15:54:06.586Z,9.50
2019-04-26T15:56:55.314Z,7.63
2019-04-26T15:59:25.355Z,7.00
2019-04-26T16:01:56.300Z,8.90
2019-04-26T16:04:25.017Z,7.17
2019-04-26T16:06:53.845Z,5.53
2019-04-26T16:09:23.028Z,8.27
2019-04-26T16:11:53.182Z,7.33
2019-04-26T16:14:24.850Z,8.13
2019-04-26T16:16:53.063Z,8.80
2019-04-26T16:19:21.757Z,6.35
2019-04-26T16:21:55.299Z,10.33
2019-04-26T16:24:24.080Z,6.03
2019-04-26T16:26:55.920Z,6.30
2019-04-26T16:29:42.565Z,5.78
2019-04-26T16:32:40.948Z,8.80
2019-04-26T16:35:09.906Z,8.03
2019-04-26T16:37:38.657Z,6.80
2019-04-26T16:40:12.383Z,8.00
2019-04-26T16:42:38.741Z,8.87
2019-04-26T16:45:08.277Z,9.47
2019-04-26T16:47:44.955Z,8.40
2019-04-26T16:50:08.040Z,8.43
2019-04-26T16:52:42.385Z,8.43
2019-04-26T16:55:18.275Z,4.90
2019-04-26T16:57:43.777Z,6.40
2019-04-26T17:00:09.441Z,8.30
2019-04-26T17:02:38.252Z,7.23
2019-04-26T17:05:17.579Z,13.73
2019-04-26T17:07:39.460Z,7.67
2019-04-26T17:10:08.516Z,7.13
2019-04-26T17:12:37.302Z,9.38
2019-04-26T17:15:07.097Z,9.30
2019-04-26T17:17:36.178Z,13.10
2019-04-26T17:20:06.708Z,11.03
2019-04-26T17:22:59.528Z,9.57
2019-04-26T17:25:33.185Z,11.37
2019-04-26T17:28:03.402Z,11.27
2019-04-26T17:30:40.807Z,11.40
2019-04-26T17:33:03.325Z,10.63
2019-04-26T17:35:32.763Z,9.05
2019-04-26T17:38:04.982Z,9.60
2019-04-26T17:40:36.705Z,8.80
2019-04-26T17:43:05.357Z,10.63
2019-04-26T17:45:36.273Z,9.25
2019-04-26T17:48:06.519Z,15.90
2019-04-26T17:50:35.393Z,9.23
2019-04-26T17:53:06.537Z,12.77
2019-04-26T17:55:37.007Z,7.53
2019-04-26T17:58:11.880Z,8.58
2019-04-26T18:00:45.921Z,7.85
2019-04-26T18:03:13.222Z,6.83
2019-04-26T18:05:55.985Z,6.03
2019-04-26T18:08:31.483Z,6.40
2019-04-26T18:10:42.782Z,7.72
2019-04-26T18:13:16.305Z,5.77
2019-04-26T18:15:46.945Z,6.23
2019-04-26T18:18:29.698Z,4.80
2019-04-26T18:21:19.090Z,11.13
2019-04-26T18:23:54.344Z,7.00
2019-04-26T18:26:21.509Z,6.10
2019-04-26T18:28:53.353Z,7.67
2019-04-26T18:31:23.700Z,8.20
2019-04-26T18:33:54.885Z,7.80
2019-04-26T18:36:23.592Z,6.23
2019-04-26T18:38:53.675Z,6.07
2019-04-26T18:41:28.547Z,7.83
2019-04-26T18:43:54.135Z,8.93
2019-04-26T18:46:31.839Z,7.00
2019-04-26T18:49:00.643Z,7.23
2019-04-26T18:51:29.691Z,8.70
2019-04-26T18:54:09.208Z,9.33
2019-04-26T18:56:40.666Z,7.93
2019-04-26T18:59:11.648Z,6.40
2019-04-26T19:01:41.816Z,9.57
2019-04-26T19:04:14.949Z,8.23
2019-04-26T19:06:42.240Z,8.63
2019-04-26T19:09:12.190Z,9.47
2019-04-26T19:11:48.343Z,9.83
2019-04-26T19:14:31.722Z,8.40
2019-04-26T19:17:11.844Z,9.50
2019-04-26T19:20:02.786Z,7.63
2019-04-26T19:22:34.323Z,8.43
2019-04-26T19:25:02.728Z,8.45
2019-04-26T19:27:33.192Z,6.97
2019-04-26T19:30:04.327Z,7.43
2019-04-26T19:32:35.466Z,7.97
2019-04-26T19:35:07.120Z,9.70
2019-04-26T19:37:36.730Z,7.37
2019-04-26T19:40:09.038Z,9.77
2019-04-26T19:42:35.587Z,12.30
2019-04-26T19:45:13.982Z,10.47
2019-04-26T19:47:59.943Z,10.73
2019-04-26T19:50:40.090Z,9.30
2019-04-26T19:53:29.533Z,9.83
2019-04-26T19:56:17.510Z,10.77
2019-04-26T19:58:50.663Z,9.50
2019-04-26T20:01:21.016Z,8.10
2019-04-26T20:03:52.049Z,9.10
2019-04-26T20:06:20.435Z,9.23
2019-04-26T20:08:49.687Z,8.27
2019-04-26T20:11:20.273Z,8.00
2019-04-26T20:13:51.752Z,9.25
2019-04-26T20:16:22.612Z,9.00
2019-04-26T20:18:52.379Z,10.63
2019-04-26T20:21:21.923Z,10.70
2019-04-26T20:23:54.325Z,9.30
2019-04-26T20:26:22.586Z,8.33
2019-04-26T20:28:51.560Z,9.67
2019-04-26T20:31:47.855Z,9.98
2019-04-26T20:34:18.467Z,7.53
2019-04-26T20:36:48.015Z,10.47
2019-04-26T20:39:20.965Z,8.73
2019-04-26T20:42:00.307Z,9.57
2019-04-26T20:44:23.751Z,10.70
2019-04-26T20:46:49.347Z,11.57
2019-04-26T20:49:19.403Z,10.83
2019-04-26T20:51:49.598Z,13.10
2019-04-26T20:54:18.785Z,11.27
2019-04-26T20:56:52.431Z,16.67
2019-04-26T20:59:20.259Z,17.17
2019-04-26T21:02:02.678Z,15.67
2019-04-26T21:04:34.917Z,17.77
2019-04-26T21:06:51.683Z,16.17
2019-04-26T21:09:21.899Z,20.00
2019-04-26T21:11:51.667Z,18.45
2019-04-26T21:14:21.508Z,19.42
2019-04-26T21:16:50.796Z,17.63
2019-04-26T21:19:20.281Z,16.80
2019-04-26T21:21:50.450Z,16.23
2019-04-26T21:24:23.398Z,13.93
2019-04-26T21:27:16.095Z,17.80
2019-04-26T21:30:19.331Z,16.90
2019-04-26T21:33:06.101Z,17.07
2019-04-26T21:35:42.854Z,16.27
2019-04-26T21:38:18.805Z,15.43
2019-04-26T21:40:56.820Z,17.40
2019-04-26T21:43:24.750Z,16.37
2019-04-26T21:46:07.130Z,20.83
2019-04-26T21:48:24.947Z,16.70
2019-04-26T21:50:53.993Z,17.42
2019-04-26T21:53:23.986Z,16.33
2019-04-26T21:55:54.640Z,15.27
2019-04-26T21:58:24.927Z,15.97
2019-04-26T22:01:17.430Z,16.03
2019-04-26T22:03:47.477Z,16.03
2019-04-26T22:06:14.327Z,17.93
2019-04-26T22:09:05.695Z,20.07
2019-04-26T22:11:36.165Z,18.37
2019-04-26T22:14:13.261Z,21.27
2019-04-26T22:17:06.901Z,16.77
2019-04-26T22:19:43.305Z,19.00
2019-04-26T22:22:41.530Z,19.48
2019-04-26T22:25:08.777Z,19.00
2019-04-26T22:27:37.910Z,19.43
2019-04-26T22:30:11.277Z,19.87
2019-04-26T22:32:40.333Z,19.63
2019-04-26T22:35:13.450Z,19.17
2019-04-26T22:37:41.316Z,19.47
2019-04-26T22:40:17.203Z,19.40
2019-04-26T22:42:43.924Z,17.87
2019-04-26T22:45:18.654Z,19.83
2019-04-26T22:47:53.683Z,21.33
2019-04-26T22:50:24.917Z,19.62
2019-04-26T22:52:54.650Z,21.10
2019-04-26T22:55:27.209Z,26.65
2019-04-26T22:57:54.030Z,18.70
2019-04-26T23:00:29.173Z,24.20
2019-04-26T23:02:58.082Z,17.07
2019-04-26T23:05:25.990Z,19.97
2019-04-26T23:07:59.329Z,19.40
2019-04-26T23:10:31.106Z,19.30
2019-04-26T23:13:08.150Z,20.60
2019-04-26T23:15:55.713Z,18.43
2019-04-26T23:18:50.547Z,21.03
2019-04-26T23:21:25.382Z,24.07
2019-04-26T23:23:54.108Z,19.43
2019-04-26T23:26:23.166Z,23.57
2019-04-26T23:28:53.522Z,26.53
2019-04-26T23:31:23.726Z,26.57
2019-04-26T23:33:53.913Z,23.13
2019-04-26T23:36:24.132Z,20.72
2019-04-26T23:38:53.264Z,21.83
2019-04-26T23:41:23.624Z,20.47
2019-04-26T23:43:56.479Z,20.40
2019-04-26T23:46:25.926Z,24.63
2019-04-26T23:48:53.862Z,22.30
2019-04-26T23:51:23.798Z,18.27
2019-04-26T23:53:56.633Z,21.23
2019-04-26T23:56:25.332Z,20.93
2019-04-26T23:58:54.240Z,23.10
